Time;durP1;ratioP1;P1;durP2;ratioP2;P2;SDS_P1;SDS_P2;PMS_P1;PMS_P2;Temp;Humidity;BMP_temperature;BMP_pressure;BME280_temperature;BME280_humidity;BME280_pressure;Samples;Min_cycle;Max_cycle;Signal;HPM_P1;HPM_P2
2023/09/23 00:01:58;;;;;;;5.63;1.42;;;;;;;-142.57;100.00;59776.50;5075726;28;20045;-81
2023/09/23 00:04:35;;;;;;;8.60;1.40;;;;;;;-142.57;100.00;59829.09;5075419;28;20120;-83
2023/09/23 00:07:01;;;;;;;12.35;1.52;;;;;;;-142.57;100.00;59768.41;5073796;28;20028;-83
2023/09/23 00:09:28;;;;;;;10.35;1.95;;;;;;;-142.57;100.00;59744.13;5073776;28;20124;-81
2023/09/23 00:11:54;;;;;;;6.32;1.30;;;;;;;-142.57;100.00;59766.38;5075533;28;20051;-82
2023/09/23 00:14:20;;;;;;;6.57;1.60;;;;;;;-142.57;100.00;59687.50;5074812;28;20039;-81
2023/09/23 00:16:47;;;;;;;7.63;2.17;;;;;;;-142.57;100.00;59699.66;5074784;28;20119;-82
2023/09/23 00:19:13;;;;;;;11.32;1.70;;;;;;;-142.57;100.00;59703.69;5075254;28;20031;-83
2023/09/23 00:21:39;;;;;;;9.25;1.70;;;;;;;-142.57;100.00;59719.88;5074745;28;20087;-81
2023/09/23 00:24:05;;;;;;;8.90;1.67;;;;;;;-142.57;100.00;59691.56;5075003;28;20033;-82
2023/09/23 00:26:32;;;;;;;9.27;1.40;;;;;;;-142.57;100.00;59677.41;5074786;28;20032;-82
2023/09/23 00:28:59;;;;;;;5.75;1.00;;;;;;;-142.57;100.00;59651.09;5075198;28;20043;-83
2023/09/23 00:31:25;;;;;;;7.68;1.27;;;;;;;-142.57;100.00;59703.69;5074915;28;20460;-82
2023/09/23 00:33:52;;;;;;;9.43;1.60;;;;;;;-142.57;100.00;59750.22;5074630;28;20064;-82
2023/09/23 00:36:19;;;;;;;8.98;1.60;;;;;;;-142.57;100.00;59857.41;5074614;28;20044;-83
2023/09/23 00:38:45;;;;;;;6.53;1.33;;;;;;;-142.57;100.00;59954.50;5073179;28;20041;-82
2023/09/23 00:41:12;;;;;;;10.88;1.40;;;;;;;-142.57;100.00;59978.78;5074522;28;20035;-81
2023/09/23 00:43:38;;;;;;;9.27;1.98;;;;;;;-142.57;98.81;60033.38;5073102;28;20102;-81
2023/09/23 00:46:05;;;;;;;9.05;1.98;;;;;;;-142.57;99.48;60055.63;5075093;28;20405;-81
2023/09/23 00:48:40;;;;;;;7.00;1.52;;;;;;;-142.57;98.95;60077.88;5074637;28;20115;-80
2023/09/23 00:51:07;;;;;;;15.02;1.90;;;;;;;-142.57;99.01;60063.72;5073247;28;20063;-81
2023/09/23 00:53:35;;;;;;;7.88;1.77;;;;;;;-142.57;98.47;60100.13;5075441;28;20037;-81
2023/09/23 00:56:02;;;;;;;9.80;1.55;;;;;;;-142.57;98.84;60112.28;5087725;28;20033;-82
2023/09/23 00:58:29;;;;;;;7.80;1.92;;;;;;;-142.57;98.66;60108.22;5076609;28;20036;-81
2023/09/23 01:00:55;;;;;;;9.68;1.92;;;;;;;-142.57;97.22;60189.13;5072939;28;20531;-81
2023/09/23 01:03:22;;;;;;;9.73;1.85;;;;;;;-142.57;96.73;60237.69;5072542;28;20113;-82
2023/09/23 01:06:06;;;;;;;8.73;1.55;;;;;;;-142.57;96.71;60219.47;5073818;28;20025;-82
2023/09/23 01:08:32;;;;;;;9.73;1.77;;;;;;;-142.57;97.61;60172.94;5072572;28;20039;-82
2023/09/23 01:10:59;;;;;;;11.68;1.55;;;;;;;-142.57;97.36;60225.53;5072878;28;20028;-81
2023/09/23 01:13:29;;;;;;;8.20;1.67;;;;;;;-142.57;97.24;60213.41;5073966;28;20037;-84
2023/09/23 01:15:55;;;;;;;7.10;1.48;;;;;;;-142.57;97.05;60274.09;5073404;28;20031;-82
2023/09/23 01:18:23;;;;;;;9.50;1.63;;;;;;;-142.57;95.70;60290.28;5085498;28;20032;-81
2023/09/23 01:20:54;;;;;;;8.18;1.70;;;;;;;-142.57;95.16;60221.50;5074953;28;20029;-83
2023/09/23 01:23:23;;;;;;;10.82;1.52;;;;;;;-142.57;93.30;60284.22;5074901;28;20076;-81
2023/09/23 01:25:49;;;;;;;8.82;1.40;;;;;;;-142.57;95.47;60241.72;5072698;28;20378;-80
2023/09/23 01:28:14;;;;;;;9.82;1.60;;;;;;;-142.57;96.52;60156.78;5074410;28;20086;-81
2023/09/23 01:30:43;;;;;;;7.32;1.40;;;;;;;-142.57;95.30;60130.47;5072696;28;20033;-81
2023/09/23 01:33:10;;;;;;;12.20;1.80;;;;;;;-142.57;96.74;60075.84;5071892;28;20028;-82
2023/09/23 01:35:36;;;;;;;9.05;1.48;;;;;;;-142.57;96.24;60126.44;5071692;28;20037;-82
2023/09/23 01:38:03;;;;;;;9.77;1.63;;;;;;;-142.57;95.87;60096.09;5070809;28;20464;-82
2023/09/23 01:40:36;;;;;;;8.07;1.42;;;;;;;-142.57;89.00;60128.44;5071209;28;20048;-82
2023/09/23 01:43:02;;;;;;;7.72;1.50;;;;;;;-142.57;87.31;60140.59;5071513;28;20037;-82
2023/09/23 01:45:28;;;;;;;10.57;1.90;;;;;;;-142.57;88.90;60079.91;5072887;28;20028;-80
2023/09/23 01:47:56;;;;;;;7.80;1.40;;;;;;;-142.57;88.53;60164.88;5071452;28;20072;-81
2023/09/23 01:50:27;;;;;;;6.15;1.20;;;;;;;-142.57;88.12;60100.13;5072468;28;20105;-81
2023/09/23 01:52:59;;;;;;;8.20;1.52;;;;;;;-142.57;86.60;60108.22;5072454;28;20458;-81
2023/09/23 01:55:25;;;;;;;12.10;1.73;;;;;;;-142.57;86.30;60108.22;5071683;28;20036;-80
2023/09/23 01:57:51;;;;;;;4.43;1.30;;;;;;;-142.57;85.60;60096.09;5072951;28;20104;-81
2023/09/23 02:00:18;;;;;;;11.93;1.73;;;;;;;-142.57;84.66;60144.63;5071436;28;20173;-82
2023/09/23 02:02:44;;;;;;;12.75;2.08;;;;;;;-142.57;84.41;60090.03;5072079;28;20111;-82
2023/09/23 02:05:10;;;;;;;9.35;1.83;;;;;;;-142.57;83.10;60144.63;5072299;28;20086;-82
2023/09/23 02:07:35;;;;;;;10.25;1.50;;;;;;;-142.57;84.87;60003.03;5071035;28;20495;-82
2023/09/23 02:10:02;;;;;;;9.23;1.55;;;;;;;-142.57;86.30;59891.78;5070824;28;20047;-82
2023/09/23 02:12:27;;;;;;;8.63;1.88;;;;;;;-142.57;86.88;59891.78;5054495;28;20032;-82
2023/09/23 02:14:53;;;;;;;11.80;2.25;;;;;;;-142.57;86.80;59879.66;5072786;28;20075;-82
2023/09/23 02:17:22;;;;;;;15.15;2.25;;;;;;;-142.57;88.41;59853.38;5074260;28;20029;-81
2023/09/23 02:19:48;;;;;;;8.65;1.50;;;;;;;-142.57;88.01;59857.41;5086535;28;20460;-80
2023/09/23 02:22:16;;;;;;;11.23;1.95;;;;;;;-142.57;88.86;59841.22;5076103;28;20082;-82
2023/09/23 02:24:41;;;;;;;6.93;1.60;;;;;;;-142.57;89.68;59912.03;5075431;28;20032;-83
2023/09/23 02:27:07;;;;;;;8.75;3.63;;;;;;;-142.57;90.09;59922.13;5075877;28;20043;-83
2023/09/23 02:29:34;;;;;;;8.18;2.53;;;;;;;-142.57;89.02;59958.53;5076019;28;20094;-82
2023/09/23 02:32:00;;;;;;;7.22;1.60;;;;;;;-142.57;87.89;59999.00;5075622;28;20068;-83
2023/09/23 02:34:28;;;;;;;6.30;2.40;;;;;;;-142.57;88.53;59978.78;5074483;28;20067;-83
2023/09/23 02:36:54;;;;;;;8.70;2.30;;;;;;;-142.57;89.51;59976.75;5074117;28;20067;-84
2023/09/23 02:39:20;;;;;;;8.95;2.40;;;;;;;-142.57;89.98;60007.09;5074228;28;20028;-83
2023/09/23 02:41:47;;;;;;;7.90;2.45;;;;;;;-142.57;89.50;59984.84;5075362;28;20036;-84
2023/09/23 02:44:22;;;;;;;5.95;1.60;;;;;;;-142.57;89.50;59980.78;5075447;28;20031;-82
2023/09/23 02:46:49;;;;;;;8.52;2.15;;;;;;;-142.57;88.28;60021.25;5075340;28;20146;-83
2023/09/23 02:49:16;;;;;;;7.47;1.35;;;;;;;-142.57;89.47;59982.81;5073784;28;20039;-83
2023/09/23 02:51:43;;;;;;;9.70;1.35;;;;;;;-142.57;88.59;59982.81;5074359;28;20435;-83
2023/09/23 02:54:10;;;;;;;13.90;2.38;;;;;;;-142.57;90.47;59918.09;5075383;28;20041;-85
2023/09/23 02:56:36;;;;;;;10.90;1.90;;;;;;;-142.57;90.75;59922.13;5073976;28;20035;-83
2023/09/23 02:59:11;;;;;;;11.90;1.70;;;;;;;-142.57;90.14;59865.50;5073581;28;20036;-82
2023/09/23 03:01:45;;;;;;;10.40;1.90;;;;;;;-142.57;86.26;59889.78;5073747;28;20110;-83
2023/09/23 03:04:18;;;;;;;10.00;1.88;;;;;;;-142.57;86.22;59966.63;5074248;28;20098;-81
2023/09/23 03:06:53;;;;;;;9.50;1.48;;;;;;;-142.57;85.89;59845.28;5074698;28;20044;-84
2023/09/23 03:09:23;;;;;;;5.60;1.55;;;;;;;-142.57;89.39;59734.03;5074359;28;20052;-82
2023/09/23 03:11:53;;;;;;;6.13;1.15;;;;;;;-142.57;86.70;59792.69;5056973;28;20433;-82
2023/09/23 03:14:25;;;;;;;12.43;1.55;;;;;;;-142.57;94.43;59736.06;5075114;28;20055;-83
2023/09/23 03:16:53;;;;;;;13.00;1.77;;;;;;;-142.57;94.94;59780.56;5075128;28;20032;-82
2023/09/23 03:19:25;;;;;;;13.60;1.77;;;;;;;-142.57;96.58;59699.66;5073520;28;20458;-83
2023/09/23 03:21:55;;;;;;;10.05;1.73;;;;;;;-142.57;96.24;59721.91;5074986;28;20036;-81
2023/09/23 03:24:29;;;;;;;7.70;1.52;;;;;;;-142.57;96.88;59636.94;5073339;28;20036;-82
2023/09/23 03:26:59;;;;;;;9.80;1.63;;;;;;;-142.57;96.86;59651.09;5073338;28;20372;-83
2023/09/23 03:29:28;;;;;;;6.40;1.33;;;;;;;-142.57;96.24;59475.16;5074344;28;20107;-84
2023/09/23 03:31:58;;;;;;;7.60;1.58;;;;;;;-142.57;97.23;59473.13;5073182;28;20060;-83
2023/09/23 03:34:26;;;;;;;9.50;1.70;;;;;;;-142.57;96.85;59481.22;5073459;28;20511;-82
2023/09/23 03:36:56;;;;;;;8.20;1.48;;;;;;;-142.57;97.38;59404.38;5073026;28;20049;-83
2023/09/23 03:39:26;;;;;;;6.35;1.40;;;;;;;-142.57;93.51;59402.34;5074054;28;20040;-83
2023/09/23 03:41:52;;;;;;;7.60;1.50;;;;;;;-142.57;93.91;59424.59;5086024;28;20052;-82
2023/09/23 03:44:18;;;;;;;9.57;1.80;;;;;;;-142.57;93.15;59458.97;5076847;28;20033;-83
2023/09/23 03:46:48;;;;;;;8.60;1.55;;;;;;;-142.57;93.42;59442.78;5072536;28;20072;-82
2023/09/23 03:49:14;;;;;;;7.32;1.40;;;;;;;-142.57;94.24;59416.50;5074291;28;20051;-83
2023/09/23 03:51:39;;;;;;;10.73;1.70;;;;;;;-142.57;93.40;59467.06;5072872;28;20021;-81
2023/09/23 03:54:05;;;;;;;9.48;1.55;;;;;;;-142.57;92.45;59505.47;5074243;28;20036;-81
2023/09/23 03:56:33;;;;;;;10.68;1.60;;;;;;;-142.57;92.91;59372.00;5072858;28;20117;-83
2023/09/23 03:59:01;;;;;;;6.40;1.80;;;;;;;-142.57;93.89;59307.28;5072939;28;20056;-81
2023/09/23 04:01:26;;;;;;;8.20;1.50;;;;;;;-142.57;96.64;59359.88;5074216;28;20539;-82
2023/09/23 04:03:52;;;;;;;11.52;2.20;;;;;;;-142.57;95.85;59394.25;5072995;28;20040;-82
2023/09/23 04:06:18;;;;;;;9.95;1.42;;;;;;;-142.57;96.76;59388.19;5072570;28;20114;-82
2023/09/23 04:08:44;;;;;;;13.55;1.75;;;;;;;-142.57;97.04;59274.94;5074025;28;20040;-82
2023/09/23 04:11:10;;;;;;;6.43;1.33;;;;;;;-142.57;100.00;59198.09;5073715;28;20024;-82
2023/09/23 04:13:38;;;;;;;12.77;1.67;;;;;;;-142.57;100.00;59222.34;5072297;28;20032;-83
2023/09/23 04:16:05;;;;;;;6.75;1.30;;;;;;;-142.57;100.00;59167.75;5073915;28;20033;-83
2023/09/23 04:18:31;;;;;;;11.15;2.05;;;;;;;-142.57;100.00;59020.13;5073621;28;20046;-80
2023/09/23 04:20:59;;;;;;;17.13;1.98;;;;;;;-142.57;100.00;59056.53;5077243;28;20067;-81
2023/09/23 04:23:24;;;;;;;20.20;1.77;;;;;;;-142.57;100.00;59044.38;5086512;28;20043;-83
2023/09/23 04:25:50;;;;;;;6.50;1.65;;;;;;;-142.57;100.00;59129.31;5093806;28;20035;-81
2023/09/23 04:28:16;;;;;;;10.68;1.45;;;;;;;-142.57;98.24;59181.91;5093585;28;20036;-81
2023/09/23 04:30:43;;;;;;;5.65;1.23;;;;;;;-142.57;96.34;59202.13;5093981;28;20028;-81
2023/09/23 04:33:08;;;;;;;11.38;1.52;;;;;;;-142.57;96.34;59230.44;5093561;28;20042;-80
2023/09/23 04:35:37;;;;;;;8.38;1.58;;;;;;;-142.57;96.24;59169.78;5093727;28;20032;-81
2023/09/23 04:38:03;;;;;;;14.25;1.50;;;;;;;-142.57;97.35;59137.41;5093727;28;20058;-79
2023/09/23 04:40:28;;;;;;;17.70;2.30;;;;;;;-142.57;99.67;59088.88;5092319;28;20430;-80
2023/09/23 04:42:54;;;;;;;21.67;2.45;;;;;;;-142.57;100.00;59090.91;5091880;28;20127;-79
2023/09/23 04:45:20;;;;;;;16.27;1.95;;;;;;;-142.57;100.00;59068.66;5087752;28;20089;-79
2023/09/23 04:47:50;;;;;;;26.08;2.42;;;;;;;-142.57;100.00;59042.38;5078023;28;20037;-78
2023/09/23 04:50:17;;;;;;;14.48;2.22;;;;;;;-142.57;100.00;58941.25;5073341;28;20121;-79
2023/09/23 04:52:44;;;;;;;15.23;2.30;;;;;;;-142.57;100.00;58900.81;5072886;28;20030;-79
2023/09/23 04:55:11;;;;;;;13.80;1.42;;;;;;;-142.57;100.00;58882.63;5071514;28;20040;-81
2023/09/23 04:57:37;;;;;;;12.80;1.98;;;;;;;-142.57;100.00;58959.47;5072890;28;20029;-80
2023/09/23 05:00:04;;;;;;;8.88;1.60;;;;;;;-142.57;100.00;58955.41;5072747;28;20504;-80
2023/09/23 05:02:30;;;;;;;7.20;1.75;;;;;;;-142.57;100.00;58993.84;5075654;28;20046;-80
2023/09/23 05:04:56;;;;;;;11.43;1.63;;;;;;;-142.57;100.00;58931.16;5087007;28;20138;-80
2023/09/23 05:07:25;;;;;;;6.93;1.40;;;;;;;-142.57;100.00;58991.81;5081446;28;20107;-79
2023/09/23 05:09:51;;;;;;;8.40;1.92;;;;;;;-142.57;100.00;58973.63;5073696;28;20031;-79
2023/09/23 05:12:18;;;;;;;10.30;1.63;;;;;;;-142.57;100.00;58967.53;5072450;28;20045;-81
2023/09/23 05:14:44;;;;;;;8.30;1.95;;;;;;;-142.57;100.00;59040.34;5072896;28;20025;-79
2023/09/23 05:17:14;;;;;;;16.40;2.13;;;;;;;-142.57;100.00;59103.03;5073151;28;20036;-78
2023/09/23 05:19:40;;;;;;;17.70;2.20;;;;;;;-142.57;100.00;59042.38;5073457;28;20164;-80
2023/09/23 05:22:08;;;;;;;13.98;2.00;;;;;;;-142.57;100.00;58981.69;5072929;28;20028;-78
2023/09/23 05:24:34;;;;;;;19.65;1.73;;;;;;;-142.57;100.00;58973.63;5073209;28;20397;-79
2023/09/23 05:27:00;;;;;;;11.90;2.25;;;;;;;-142.57;100.00;58886.66;5065587;22;20050;-83
2023/09/23 05:29:26;;;;;;;41.55;3.42;;;;;;;-142.57;100.00;58999.91;5033384;28;20041;-80
2023/09/23 05:31:52;;;;;;;55.88;3.85;;;;;;;-142.57;100.00;59167.75;5034068;28;20045;-83
2023/09/23 05:34:19;;;;;;;35.88;2.30;;;;;;;-142.57;100.00;59185.94;5032738;28;20060;-81
2023/09/23 05:36:45;;;;;;;15.68;2.00;;;;;;;-142.57;100.00;59208.19;5026872;28;20062;-81
2023/09/23 05:39:19;;;;;;;17.15;2.47;;;;;;;-142.57;99.36;59620.75;5026750;28;20030;-81
2023/09/23 05:41:57;;;;;;;18.83;2.22;;;;;;;-142.57;94.18;59936.28;5029024;28;20041;-83
2023/09/23 05:44:23;;;;;;;10.13;1.50;;;;;;;-142.57;87.71;60306.47;5029497;28;20375;-81
2023/09/23 05:46:48;;;;;;;11.23;2.30;;;;;;;-142.57;90.69;60065.75;5031143;28;20043;-81
2023/09/23 05:49:15;;;;;;;12.48;2.25;;;;;;;-142.57;86.86;60348.94;5029931;28;20390;-81
2023/09/23 05:51:41;;;;;;;8.98;1.77;;;;;;;-142.57;82.75;60650.38;5034806;28;20053;-80
2023/09/23 05:54:08;;;;;;;15.50;1.67;;;;;;;-142.57;81.39;60992.28;5047735;28;20490;-79
2023/09/23 05:56:34;;;;;;;11.48;1.80;;;;;;;-142.57;77.11;61457.66;5049883;28;20037;-80
2023/09/23 05:58:59;;;;;;;7.28;1.95;;;;;;;-142.57;74.63;61795.56;5047257;28;20051;-82
2023/09/23 06:01:26;;;;;;;10.88;2.33;;;;;;;-142.57;69.87;62315.69;5051825;28;20083;-80
2023/09/23 06:03:52;;;;;;;17.35;1.65;;;;;;;-142.57;65.64;62467.47;5034510;28;20021;-82
2023/09/23 06:06:18;;;;;;;11.80;1.45;;;;;;;-142.57;65.24;62418.91;5033955;28;20106;-83
2023/09/23 06:08:47;;;;;;;11.70;1.52;;;;;;;-142.57;65.58;62708.34;5035994;28;20092;-82
2023/09/23 06:11:14;;;;;;;9.93;1.55;;;;;;;-142.57;62.35;62878.38;5034039;28;20034;-82
2023/09/23 06:13:40;;;;;;;8.23;1.35;;;;;;;-142.57;61.99;62924.91;5038870;28;20116;-79
2023/09/23 06:16:07;;;;;;;7.65;1.27;;;;;;;-142.57;57.09;63888.56;5046441;28;20041;-81
2023/09/23 06:18:33;;;;;;;8.05;1.45;;;;;;;-142.57;57.80;63904.75;5042230;28;20037;-83
2023/09/23 06:21:05;;;;;;;11.65;1.95;;;;;;;-142.57;57.34;63933.09;5043880;28;20033;-80
2023/09/23 06:23:31;;;;;;;12.90;2.20;;;;;;;-142.57;56.40;63969.53;5048601;28;20045;-84
2023/09/23 06:26:02;;;;;;;10.23;1.45;;;;;;;-142.57;56.22;63813.66;5052094;28;20053;-84
2023/09/23 06:28:30;;;;;;;9.80;2.10;;;;;;;-142.57;55.35;64161.91;5052919;28;20033;-83
2023/09/23 06:30:56;;;;;;;16.42;1.80;;;;;;;-142.57;56.27;63576.78;5055068;28;20029;-82
2023/09/23 06:33:23;;;;;;;10.40;1.88;;;;;;;-142.57;59.75;63078.75;5055351;28;20037;-79
2023/09/23 06:35:49;;;;;;;12.75;2.08;;;;;;;-142.57;55.45;64277.31;5054144;28;20072;-83
2023/09/23 06:38:15;;;;;;;11.35;1.67;;;;;;;-142.57;50.31;65172.44;5056310;28;20100;-83
2023/09/23 06:40:41;;;;;;;9.35;1.67;;;;;;;-142.57;52.15;64799.78;5050254;28;20029;-83
2023/09/23 06:43:07;;;;;;;12.13;1.70;;;;;;;-142.57;54.19;63775.19;5048570;28;20053;-83
2023/09/23 06:45:32;;;;;;;12.15;1.55;;;;;;;-142.57;55.05;63564.63;5053379;28;20037;-83
2023/09/23 06:47:58;;;;;;;20.90;1.98;;;;;;;-142.57;54.77;63526.16;5034494;28;20650;-82
2023/09/23 06:50:24;;;;;;;15.02;2.25;;;;;;;-142.57;55.35;63453.28;5034442;28;20467;-86
2023/09/23 06:52:49;;;;;;;9.25;1.80;;;;;;;-142.57;56.30;63034.22;5035622;28;20489;-82
2023/09/23 06:55:15;;;;;;;14.50;1.73;;;;;;;-142.57;56.08;63260.94;5033638;28;20041;-87
2023/09/23 06:57:43;;;;;;;20.60;1.77;;;;;;;-142.57;54.01;63520.09;5034668;28;20037;-87
2023/09/23 07:00:10;;;;;;;7.35;1.25;;;;;;;-142.57;53.50;63552.47;5036487;28;20514;-82
2023/09/23 07:02:36;;;;;;;14.05;1.55;;;;;;;-142.57;50.96;64198.34;5040008;28;20105;-86
2023/09/23 07:05:02;;;;;;;8.55;1.38;;;;;;;-142.57;50.79;64072.81;5038126;28;20119;-86
2023/09/23 07:07:28;;;;;;;4.63;1.38;;;;;;;-142.57;50.57;64208.47;5039626;28;20033;-86
2023/09/23 07:09:54;;;;;;;13.48;1.83;;;;;;;-142.57;51.07;63576.78;5036561;28;20041;-85
2023/09/23 07:12:20;;;;;;;13.10;1.92;;;;;;;-142.57;50.74;63443.16;5037206;28;20095;-86
2023/09/23 07:14:46;;;;;;;9.52;1.15;;;;;;;-142.57;51.07;63890.59;5051991;28;20034;-85
2023/09/23 07:17:11;;;;;;;9.52;1.25;;;;;;;-142.57;50.54;63651.69;5053042;28;20097;-83
2023/09/23 07:19:37;;;;;;;6.43;1.30;;;;;;;-142.57;48.74;64032.31;5046551;28;20533;-83
2023/09/23 07:22:03;;;;;;;7.82;1.35;;;;;;;-142.57;47.81;63985.75;5045335;28;20068;-84
2023/09/23 07:24:30;;;;;;;9.13;1.60;;;;;;;-142.57;46.53;64062.69;5046583;28;20096;-83
2023/09/23 07:27:03;;;;;;;11.40;1.33;;;;;;;-142.57;46.83;64301.63;5045492;28;20045;-85
2023/09/23 07:29:32;;;;;;;7.97;1.17;;;;;;;-142.57;49.57;64358.31;5035268;28;20041;-86
2023/09/23 07:31:58;;;;;;;6.03;1.75;;;;;;;-142.57;48.50;64538.53;5036050;28;20033;-86
2023/09/23 07:34:23;;;;;;;7.97;1.45;;;;;;;-142.57;46.43;64945.59;5036104;28;20497;-85
2023/09/23 07:36:49;;;;;;;8.90;1.95;;;;;;;-142.57;45.23;65320.28;5034525;28;20105;-85
2023/09/23 07:39:16;;;;;;;7.57;1.35;;;;;;;-142.57;43.20;65496.50;5035770;28;20033;-84
2023/09/23 07:41:41;;;;;;;9.77;1.63;;;;;;;-142.57;42.10;66290.56;5034424;28;20151;-84
2023/09/23 07:44:07;;;;;;;6.80;1.70;;;;;;;-142.57;42.31;65988.72;5035391;28;20044;-85
2023/09/23 07:46:33;;;;;;;12.18;1.23;;;;;;;-142.57;39.64;66845.72;5034552;28;20552;-85
2023/09/23 07:48:58;;;;;;;7.38;1.65;;;;;;;-142.57;40.16;65439.78;5035189;28;20541;-85
2023/09/23 07:51:25;;;;;;;9.40;1.70;;;;;;;-142.57;40.26;65510.66;5034738;28;20033;-86
2023/09/23 07:53:52;;;;;;;8.43;1.40;;;;;;;-142.57;39.12;65690.94;4988449;28;20087;-82
2023/09/23 07:56:17;;;;;;;9.82;1.70;;;;;;;-142.57;39.99;65073.19;5019556;28;20053;-85
2023/09/23 07:58:43;;;;;;;5.78;1.10;;;;;;;-142.57;40.87;64631.69;5030843;28;20104;-84
2023/09/23 08:01:09;;;;;;;8.25;1.63;;;;;;;-142.57;41.34;64560.81;5029433;28;20030;-84
2023/09/23 08:03:34;;;;;;;7.82;1.48;;;;;;;-142.57;41.51;64795.72;5031257;28;20105;-85
2023/09/23 08:06:00;;;;;;;7.45;1.25;;;;;;;-142.57;41.75;64751.19;5031165;28;20069;-82
2023/09/23 08:08:26;;;;;;;8.38;1.15;;;;;;;-142.57;39.00;64753.19;5030906;28;20057;-83
2023/09/23 08:10:53;;;;;;;11.73;1.60;;;;;;;-142.57;38.73;64694.47;5034461;28;20071;-83
2023/09/23 08:13:20;;;;;;;5.78;1.10;;;;;;;-142.57;38.06;64649.91;5035018;28;20037;-85
2023/09/23 08:15:48;;;;;;;8.23;1.10;;;;;;;-142.57;38.58;64423.13;5033329;28;20069;-82
2023/09/23 08:18:15;;;;;;;6.22;1.40;;;;;;;-142.57;38.17;64483.88;5033868;28;20095;-86
2023/09/23 08:20:40;;;;;;;6.00;1.27;;;;;;;-142.57;38.00;64670.16;5033019;28;20113;-85
2023/09/23 08:23:07;;;;;;;6.03;1.08;;;;;;;-142.57;37.11;64672.19;5034654;28;20540;-82
2023/09/23 08:25:35;;;;;;;20.35;1.92;;;;;;;-142.57;36.73;64925.34;5034307;28;20128;-83
2023/09/23 08:28:01;;;;;;;8.73;1.45;;;;;;;-142.57;36.68;65056.97;5033982;28;20115;-84
2023/09/23 08:30:29;;;;;;;6.10;0.95;;;;;;;-142.57;36.84;64581.06;5035105;28;20043;-86
2023/09/23 08:32:55;;;;;;;7.68;1.42;;;;;;;-142.57;37.25;65168.38;5035004;28;20340;-87
2023/09/23 08:35:21;;;;;;;6.63;1.33;;;;;;;-142.57;34.92;65419.53;5034039;28;20037;-84
2023/09/23 08:37:47;;;;;;;6.00;1.02;;;;;;;-142.57;34.40;64929.38;5034353;28;20022;-85
2023/09/23 08:40:13;;;;;;;14.73;1.50;;;;;;;-142.57;35.05;65140.03;5033834;28;20048;-82
2023/09/23 08:42:39;;;;;;;6.60;1.60;;;;;;;-142.57;35.46;64882.81;5034474;28;20029;-81
2023/09/23 08:45:09;;;;;;;3.88;0.93;;;;;;;-142.57;34.97;65391.16;5033679;28;20061;-84
2023/09/23 08:47:39;;;;;;;4.70;0.75;;;;;;;-142.57;33.16;65401.28;5031959;28;20111;-88
2023/09/23 08:50:10;;;;;;;5.18;1.00;;;;;;;-142.57;33.39;65512.69;5034474;28;20064;-85
2023/09/23 08:52:37;;;;;;;11.68;1.83;;;;;;;-142.57;33.51;65786.16;5033681;28;20148;-85
2023/09/23 08:55:04;;;;;;;6.03;1.02;;;;;;;-142.57;33.76;65370.91;5033762;28;20068;-83
2023/09/23 08:57:33;;;;;;;11.02;1.30;;;;;;;-142.57;34.28;65099.50;5033006;28;20044;-87
2023/09/23 08:59:59;;;;;;;6.93;1.17;;;;;;;-142.57;34.61;64686.38;5033859;28;20044;-88
2023/09/23 09:02:25;;;;;;;9.38;1.38;;;;;;;-142.57;34.34;65285.84;5034266;28;20037;-85
2023/09/23 09:04:57;;;;;;;11.30;1.65;;;;;;;-142.57;34.53;64986.09;5035250;28;20402;-89
2023/09/23 09:07:31;;;;;;;10.85;1.00;;;;;;;-142.57;34.77;64390.72;5038755;28;20547;-90
2023/09/23 09:09:57;;;;;;;8.52;1.30;;;;;;;-142.57;35.80;63971.56;5036626;28;20041;-89
2023/09/23 09:12:23;;;;;;;7.30;1.10;;;;;;;-142.57;37.25;63499.84;5035578;28;20094;-90
2023/09/23 09:14:51;;;;;;;5.63;0.98;;;;;;;-142.57;38.43;63443.16;5036278;28;20127;-89
2023/09/23 09:17:18;;;;;;;5.95;1.48;;;;;;;-142.57;38.65;63712.41;5033873;28;20513;-79
2023/09/23 09:19:44;;;;;;;4.88;1.33;;;;;;;-142.57;38.05;64050.53;5037510;28;20057;-86
2023/09/23 09:22:10;;;;;;;11.02;1.42;;;;;;;-142.57;36.52;64532.47;5037416;28;20060;-86
2023/09/23 09:24:35;;;;;;;5.60;1.17;;;;;;;-142.57;36.40;64785.59;5037046;28;20026;-89
2023/09/23 09:27:01;;;;;;;11.85;1.38;;;;;;;-142.57;35.54;64986.09;5034110;28;20324;-82
2023/09/23 09:29:28;;;;;;;6.35;1.00;;;;;;;-142.57;34.58;65601.81;5036822;28;20074;-83
2023/09/23 09:32:02;;;;;;;13.48;1.33;;;;;;;-142.57;34.00;65990.75;5035247;28;20104;-87
2023/09/23 09:34:31;;;;;;;13.63;1.20;;;;;;;-142.57;34.36;66087.97;5035971;28;20040;-86
2023/09/23 09:36:57;;;;;;;7.72;1.15;;;;;;;-142.57;33.21;66106.22;5034595;28;20064;-85
2023/09/23 09:39:29;;;;;;;7.68;1.20;;;;;;;-142.57;33.11;65879.34;5034949;28;20072;-86
2023/09/23 09:42:01;;;;;;;15.32;1.60;;;;;;;-142.57;33.65;66527.63;5033790;28;20033;-84
2023/09/23 09:44:28;;;;;;;11.60;1.80;;;;;;;-142.57;31.98;66424.28;5036019;28;20040;-88
2023/09/23 09:46:59;;;;;;;5.95;1.30;;;;;;;-142.57;32.33;66397.94;5038100;28;20057;-85
2023/09/23 09:49:26;;;;;;;7.95;1.10;;;;;;;-142.57;32.16;66748.47;5039614;28;20064;-84
2023/09/23 09:51:52;;;;;;;9.65;1.13;;;;;;;-142.57;31.69;66395.91;5018982;28;20041;-83
2023/09/23 09:54:20;;;;;;;10.38;1.38;;;;;;;-142.57;30.56;66061.66;5017417;28;20040;-86
2023/09/23 09:56:49;;;;;;;4.20;1.15;;;;;;;-142.57;31.05;66039.38;5031265;28;20097;-83
2023/09/23 09:59:41;;;;;;;6.40;1.40;;;;;;;-142.57;31.52;65944.16;5030213;28;20037;-82
2023/09/23 10:02:07;;;;;;;8.70;1.38;;;;;;;-142.57;30.88;66649.19;5028830;28;20062;-84
2023/09/23 10:04:33;;;;;;;8.80;1.40;;;;;;;-142.57;31.63;65879.34;5031555;28;20037;-83
2023/09/23 10:06:59;;;;;;;10.13;1.30;;;;;;;-142.57;33.18;64929.38;5037911;28;20041;-86
2023/09/23 10:09:27;;;;;;;8.77;1.70;;;;;;;-142.57;34.42;64350.22;5045175;28;20037;-86
2023/09/23 10:11:55;;;;;;;10.38;1.48;;;;;;;-142.57;34.60;64182.16;5037908;28;20393;-88
2023/09/23 10:14:28;;;;;;;10.65;1.38;;;;;;;-142.57;34.27;64552.72;5032853;28;20041;-84
2023/09/23 10:17:04;;;;;;;13.57;1.45;;;;;;;-142.57;33.47;65107.63;5032889;28;20038;-85
2023/09/23 10:19:32;;;;;;;11.77;1.15;;;;;;;-142.57;31.16;66100.13;5032493;28;20030;-84
2023/09/23 10:22:13;;;;;;;9.82;1.45;;;;;;;-142.57;29.46;66999.72;5031541;28;20099;-85
2023/09/23 10:24:42;;;;;;;8.25;1.25;;;;;;;-142.57;29.51;67759.63;5032788;28;20151;-85
2023/09/23 10:27:11;;;;;;;16.30;1.35;;;;;;;-142.57;29.21;67944.06;5046461;28;20088;-85
2023/09/23 10:29:45;;;;;;;6.63;1.73;;;;;;;-142.57;28.93;67832.59;5050409;28;20041;-85
2023/09/23 10:32:15;;;;;;;9.73;1.23;;;;;;;-142.57;29.29;67753.56;5050439;28;20085;-85
2023/09/23 10:34:48;;;;;;;8.00;1.20;;;;;;;-142.57;29.05;67109.13;5049006;28;20045;-85
2023/09/23 10:37:27;;;;;;;7.45;0.98;;;;;;;-142.57;27.91;68501.47;5044517;28;20093;-83
2023/09/23 10:39:52;;;;;;;6.05;1.17;;;;;;;-142.57;27.80;68904.88;5050375;28;20044;-84
2023/09/23 10:42:18;;;;;;;6.05;1.27;;;;;;;-142.57;28.17;68837.97;5032737;28;20038;-82
2023/09/23 10:44:47;;;;;;;8.15;1.40;;;;;;;-142.57;27.40;68722.41;5044052;28;20117;-82
2023/09/23 10:47:14;;;;;;;7.93;1.50;;;;;;;-142.57;26.71;69515.09;5051368;28;20033;-82
2023/09/23 10:49:40;;;;;;;5.85;1.27;;;;;;;-142.57;26.05;70668.97;5026687;28;20040;-82
2023/09/23 10:52:06;;;;;;;10.10;1.48;;;;;;;-142.57;25.94;70224.81;5039533;28;20025;-82
2023/09/23 10:54:32;;;;;;;5.15;1.38;;;;;;;-142.57;26.46;69261.66;5046500;28;20467;-81
2023/09/23 10:57:00;;;;;;;7.75;1.20;;;;;;;-142.57;27.43;68250.13;5045982;28;20080;-84
2023/09/23 10:59:26;;;;;;;5.80;1.30;;;;;;;-142.57;26.97;69002.16;5026491;28;20033;-83
2023/09/23 11:01:55;;;;;;;10.45;1.40;;;;;;;-142.57;26.84;68621.06;5044423;28;20045;-82
2023/09/23 11:04:23;;;;;;;12.98;1.08;;;;;;;-142.57;26.91;68179.19;5046408;28;20104;-81
2023/09/23 11:06:49;;;;;;;5.63;1.33;;;;;;;-142.57;27.50;67814.34;5050790;28;20121;-83
2023/09/23 11:09:14;;;;;;;6.05;1.33;;;;;;;-142.57;27.89;67394.84;5048635;28;20044;-82
2023/09/23 11:11:41;;;;;;;5.18;1.30;;;;;;;-142.57;28.38;66827.47;5045147;28;20057;-82
2023/09/23 11:14:15;;;;;;;10.77;1.80;;;;;;;-142.57;27.22;67751.53;5036900;28;20041;-83